createdAt,value
2022-10-11T00:00:36.778Z,100.00
2022-10-11T00:03:23.575Z,100.00
2022-10-11T00:06:10.529Z,100.00
2022-10-11T00:08:57.200Z,100.00
2022-10-11T00:11:26.939Z,100.00
2022-10-11T00:13:56.989Z,100.00
2022-10-11T00:16:23.699Z,100.00
2022-10-11T00:18:50.461Z,100.00
2022-10-11T00:21:17.619Z,100.00
2022-10-11T00:23:44.463Z,100.00
2022-10-11T00:26:14.369Z,100.00
2022-10-11T00:28:43.826Z,100.00
2022-10-11T00:31:15.784Z,100.00
2022-10-11T00:33:42.747Z,100.00
2022-10-11T00:36:13.622Z,100.00
2022-10-11T00:38:41.124Z,100.00
2022-10-11T00:41:07.847Z,100.00
2022-10-11T00:43:35.590Z,100.00
2022-10-11T00:46:25.536Z,100.00
2022-10-11T00:49:26.966Z,100.00
2022-10-11T00:52:03.399Z,100.00
2022-10-11T00:54:36.203Z,100.00
2022-10-11T00:57:12.985Z,100.00
2022-10-11T00:59:45.388Z,100.00
2022-10-11T01:02:14.344Z,100.00
2022-10-11T01:05:25.146Z,100.00
2022-10-11T01:07:48.504Z,100.00
2022-10-11T01:10:15.565Z,100.00
2022-10-11T01:13:33.494Z,100.00
2022-10-11T01:16:35.386Z,100.00
2022-10-11T01:19:15.506Z,100.00
2022-10-11T01:22:28.782Z,100.00
2022-10-11T01:25:51.272Z,100.00
2022-10-11T01:28:38.831Z,100.00
2022-10-11T01:31:17.714Z,100.00
2022-10-11T01:34:02.136Z,100.00
2022-10-11T01:36:32.233Z,100.00
2022-10-11T01:39:05.080Z,100.00
2022-10-11T01:41:39.787Z,100.00
2022-10-11T01:44:09.242Z,100.00
2022-10-11T01:46:37.205Z,100.00
2022-10-11T01:49:05.619Z,100.00
2022-10-11T01:51:42.021Z,100.00
2022-10-11T01:55:08.788Z,100.00
2022-10-11T01:57:58.688Z,100.00
2022-10-11T02:00:34.989Z,100.00
2022-10-11T02:03:33.944Z,100.00
2022-10-11T02:06:32.582Z,100.00
2022-10-11T02:09:08.459Z,100.00
2022-10-11T02:11:38.205Z,100.00
2022-10-11T02:14:18.614Z,100.00
2022-10-11T02:16:54.293Z,100.00
2022-10-11T02:19:32.434Z,100.00
2022-10-11T02:22:09.961Z,100.00
2022-10-11T02:24:44.529Z,100.00
2022-10-11T02:27:14.670Z,100.00
2022-10-11T02:29:46.361Z,100.00
2022-10-11T02:32:17.145Z,100.00
2022-10-11T02:34:53.461Z,100.00
2022-10-11T02:37:41.576Z,100.00
2022-10-11T02:40:29.437Z,100.00
2022-10-11T02:43:13.827Z,100.00
2022-10-11T02:45:50.894Z,100.00
2022-10-11T02:48:19.231Z,100.00
2022-10-11T02:50:46.398Z,100.00
2022-10-11T02:53:13.444Z,100.00
2022-10-11T02:55:40.455Z,100.00
2022-10-11T02:58:07.274Z,100.00
2022-10-11T03:00:34.024Z,100.00
2022-10-11T03:03:00.740Z,100.00
2022-10-11T03:05:27.606Z,100.00
2022-10-11T03:07:54.309Z,100.00
2022-10-11T03:10:21.172Z,100.00
2022-10-11T03:12:48.560Z,100.00
2022-10-11T03:15:15.517Z,100.00
2022-10-11T03:17:42.244Z,100.00
2022-10-11T03:20:09.634Z,100.00
2022-10-11T03:22:36.552Z,100.00
2022-10-11T03:25:04.800Z,100.00
2022-10-11T03:27:33.330Z,100.00
2022-10-11T03:30:00.433Z,100.00
2022-10-11T03:32:28.432Z,100.00
2022-10-11T03:34:55.204Z,100.00
2022-10-11T03:37:22.298Z,100.00
2022-10-11T03:39:49.065Z,100.00
2022-10-11T03:42:15.818Z,100.00
2022-10-11T03:44:42.617Z,100.00
2022-10-11T03:47:12.839Z,100.00
2022-10-11T03:49:43.442Z,100.00
2022-10-11T03:52:11.124Z,100.00
2022-10-11T03:54:38.066Z,100.00
2022-10-11T03:57:05.191Z,100.00
2022-10-11T03:59:32.088Z,100.00
2022-10-11T04:01:59.361Z,100.00
2022-10-11T04:04:26.290Z,100.00
2022-10-11T04:06:53.567Z,100.00
2022-10-11T04:09:25.343Z,100.00
2022-10-11T04:11:52.320Z,100.00
2022-10-11T04:14:19.188Z,100.00
2022-10-11T04:16:45.981Z,100.00
2022-10-11T04:19:12.820Z,100.00
2022-10-11T04:21:39.587Z,100.00
2022-10-11T04:24:06.573Z,100.00
2022-10-11T04:26:33.407Z,100.00
2022-10-11T04:29:00.408Z,100.00
2022-10-11T04:31:27.214Z,100.00
2022-10-11T04:33:53.988Z,100.00
2022-10-11T04:36:20.724Z,100.00
2022-10-11T04:38:47.796Z,100.00
2022-10-11T04:41:16.443Z,100.00
2022-10-11T04:43:43.383Z,100.00
2022-10-11T04:46:11.078Z,100.00
2022-10-11T04:48:38.650Z,100.00
2022-10-11T04:51:05.899Z,100.00
2022-10-11T04:53:32.666Z,100.00
2022-10-11T04:56:07.727Z,100.00
2022-10-11T04:58:36.654Z,100.00
2022-10-11T05:01:04.842Z,100.00
2022-10-11T05:03:34.145Z,100.00
2022-10-11T05:06:05.968Z,100.00
2022-10-11T05:08:34.519Z,100.00
2022-10-11T05:11:07.721Z,100.00
2022-10-11T05:13:37.212Z,100.00
2022-10-11T05:16:10.688Z,100.00
2022-10-11T05:18:40.455Z,100.00
2022-10-11T05:21:18.401Z,100.00
2022-10-11T05:23:49.790Z,100.00
2022-10-11T05:26:20.241Z,100.00
2022-10-11T05:28:48.497Z,100.00
2022-10-11T05:31:17.655Z,100.00
2022-10-11T05:33:46.120Z,100.00
2022-10-11T05:36:14.724Z,100.00
2022-10-11T05:38:43.554Z,100.00
2022-10-11T05:41:16.857Z,100.00
2022-10-11T05:43:45.883Z,100.00
2022-10-11T05:46:14.958Z,100.00
2022-10-11T05:49:01.679Z,100.00
2022-10-11T05:51:32.011Z,100.00
2022-10-11T05:53:59.029Z,100.00
2022-10-11T05:56:26.777Z,100.00
2022-10-11T05:58:54.959Z,100.00
2022-10-11T06:01:27.997Z,100.00
2022-10-11T06:03:55.877Z,100.00
2022-10-11T06:06:23.506Z,100.00
2022-10-11T06:08:52.497Z,100.00
2022-10-11T06:11:25.251Z,100.00
2022-10-11T06:13:58.091Z,100.00
2022-10-11T06:16:26.567Z,100.00
2022-10-11T06:18:57.639Z,100.00
2022-10-11T06:21:24.818Z,100.00
2022-10-11T06:23:58.252Z,100.00
2022-10-11T06:26:25.452Z,100.00
2022-10-11T06:28:52.994Z,100.00
2022-10-11T06:31:20.101Z,100.00
2022-10-11T06:33:47.058Z,100.00
2022-10-11T06:36:16.715Z,100.00
2022-10-11T06:38:45.491Z,100.00
2022-10-11T06:41:25.789Z,100.00
2022-10-11T06:43:57.094Z,100.00
2022-10-11T06:46:28.500Z,100.00
2022-10-11T06:48:58.253Z,100.00
2022-10-11T06:51:30.399Z,100.00
2022-10-11T06:54:01.759Z,100.00
2022-10-11T06:56:34.120Z,100.00
2022-10-11T06:59:05.575Z,100.00
2022-10-11T07:01:35.731Z,100.00
2022-10-11T07:04:06.620Z,100.00
2022-10-11T07:06:41.847Z,100.00
2022-10-11T07:09:15.093Z,100.00
2022-10-11T07:11:48.874Z,100.00
2022-10-11T07:14:20.132Z,100.00
2022-10-11T07:16:57.630Z,100.00
2022-10-11T07:19:27.685Z,100.00
2022-10-11T07:21:57.633Z,100.00
2022-10-11T07:24:25.077Z,100.00
2022-10-11T07:26:51.896Z,100.00
2022-10-11T07:29:19.034Z,100.00
2022-10-11T07:31:45.929Z,100.00
2022-10-11T07:34:12.719Z,100.00
2022-10-11T07:36:39.831Z,100.00
2022-10-11T07:39:08.751Z,100.00
2022-10-11T07:41:36.660Z,100.00
2022-10-11T07:44:03.552Z,100.00
2022-10-11T07:46:30.645Z,100.00
2022-10-11T07:48:57.473Z,100.00
2022-10-11T07:51:25.067Z,100.00
2022-10-11T07:53:56.364Z,100.00
2022-10-11T07:56:27.665Z,100.00
2022-10-11T07:58:58.670Z,100.00
2022-10-11T08:01:40.743Z,100.00
2022-10-11T08:04:07.569Z,100.00
2022-10-11T08:06:36.483Z,100.00
2022-10-11T08:09:04.255Z,100.00
2022-10-11T08:11:40.223Z,100.00
2022-10-11T08:14:09.152Z,100.00
2022-10-11T08:16:38.916Z,100.00
2022-10-11T08:19:07.403Z,100.00
2022-10-11T08:21:34.812Z,100.00
2022-10-11T08:24:04.250Z,100.00
2022-10-11T08:26:32.210Z,100.00
2022-10-11T08:29:03.370Z,100.00
2022-10-11T08:31:30.615Z,100.00
2022-10-11T08:33:57.496Z,100.00
2022-10-11T08:36:24.472Z,100.00
2022-10-11T08:38:51.336Z,100.00
2022-10-11T08:41:38.436Z,100.00
2022-10-11T08:44:51.747Z,100.00
2022-10-11T08:47:42.868Z,100.00
2022-10-11T08:50:20.769Z,100.00
2022-10-11T08:52:52.526Z,100.00
2022-10-11T08:55:38.238Z,100.00
2022-10-11T08:58:05.132Z,100.00
2022-10-11T09:00:36.309Z,100.00
2022-10-11T09:03:21.957Z,100.00
2022-10-11T09:06:16.224Z,100.00
2022-10-11T09:09:40.009Z,100.00
2022-10-11T09:12:29.519Z,100.00
2022-10-11T09:15:26.924Z,100.00
2022-10-11T09:18:49.847Z,100.00
2022-10-11T09:21:42.001Z,100.00
2022-10-11T09:24:31.838Z,100.00
2022-10-11T09:27:14.155Z,100.00
2022-10-11T09:29:55.965Z,100.00
2022-10-11T09:32:28.807Z,100.00
2022-10-11T09:35:10.504Z,100.00
2022-10-11T09:37:57.745Z,100.00
2022-10-11T09:41:07.781Z,100.00
2022-10-11T09:43:34.732Z,100.00
2022-10-11T09:46:01.831Z,100.00
2022-10-11T09:48:41.555Z,100.00
2022-10-11T09:51:29.143Z,100.00
2022-10-11T09:54:05.645Z,100.00
2022-10-11T09:56:40.195Z,98.31
2022-10-11T09:59:27.751Z,98.32
2022-10-11T10:02:12.781Z,93.26
2022-10-11T10:05:16.451Z,96.08
2022-10-11T10:08:10.870Z,97.49
2022-10-11T10:10:48.760Z,98.10
2022-10-11T10:13:29.695Z,95.04
2022-10-11T10:15:59.227Z,94.08
2022-10-11T10:18:42.561Z,97.17
2022-10-11T10:21:14.978Z,96.18
2022-10-11T10:23:43.173Z,96.31
2022-10-11T10:26:20.471Z,83.75
2022-10-11T10:28:59.272Z,84.18
2022-10-11T10:32:12.997Z,80.85
2022-10-11T10:34:41.482Z,84.80
2022-10-11T10:37:54.165Z,88.64
2022-10-11T10:40:41.310Z,90.15
2022-10-11T10:43:18.699Z,83.81
2022-10-11T10:46:16.599Z,81.22
2022-10-11T10:52:20.709Z,80.67
2022-10-11T10:55:14.666Z,81.63
2022-10-11T10:58:07.122Z,72.46
2022-10-11T11:00:47.545Z,71.15
2022-10-11T11:03:32.219Z,70.95
2022-10-11T11:06:08.343Z,69.20
2022-10-11T11:09:00.036Z,70.78
2022-10-11T11:12:02.973Z,72.85
2022-10-11T11:14:41.581Z,76.48
2022-10-11T11:17:29.454Z,79.76
2022-10-11T11:20:17.082Z,76.37
2022-10-11T11:23:10.281Z,69.77
2022-10-11T11:25:51.185Z,74.84
2022-10-11T11:29:06.325Z,75.52
2022-10-11T11:32:05.030Z,73.03
2022-10-11T11:35:03.276Z,75.18
2022-10-11T11:37:42.328Z,70.34
2022-10-11T11:40:21.331Z,69.98
2022-10-11T11:43:07.168Z,72.15
2022-10-11T11:45:51.285Z,67.40
2022-10-11T11:48:24.718Z,66.85
2022-10-11T11:51:07.948Z,68.06
2022-10-11T11:54:15.924Z,67.45
2022-10-11T11:56:51.252Z,65.27
2022-10-11T11:59:37.376Z,64.81
2022-10-11T12:02:51.715Z,67.59
2022-10-11T12:05:27.809Z,67.08
2022-10-11T12:08:03.452Z,68.21
2022-10-11T12:10:53.428Z,62.37
2022-10-11T12:13:32.471Z,60.35
2022-10-11T12:16:21.490Z,63.89
2022-10-11T12:19:02.960Z,66.66
2022-10-11T12:21:35.004Z,67.69
2022-10-11T12:24:20.049Z,69.41
2022-10-11T12:26:54.512Z,65.45
2022-10-11T12:29:48.712Z,65.03
2022-10-11T12:32:27.584Z,64.67
2022-10-11T12:35:30.078Z,62.22
2022-10-11T12:38:37.169Z,66.59
2022-10-11T12:41:09.865Z,61.95
2022-10-11T12:44:07.685Z,61.07
2022-10-11T12:47:01.588Z,65.01
2022-10-11T12:49:49.759Z,65.71
2022-10-11T12:52:27.601Z,65.58
2022-10-11T12:55:12.517Z,64.09
2022-10-11T12:58:05.978Z,64.67
2022-10-11T13:01:02.772Z,64.27
2022-10-11T13:03:50.753Z,66.67
2022-10-11T13:06:45.633Z,67.19
2022-10-11T13:09:35.004Z,63.69
2022-10-11T13:12:25.870Z,62.05
2022-10-11T13:15:07.005Z,63.03
2022-10-11T13:17:39.089Z,65.06
2022-10-11T13:20:28.440Z,65.29
2022-10-11T13:22:57.358Z,63.05
2022-10-11T13:25:36.882Z,66.16
2022-10-11T13:28:09.355Z,66.18
2022-10-11T13:30:42.415Z,68.06
2022-10-11T13:33:25.425Z,68.38
2022-10-11T13:35:53.767Z,68.45
2022-10-11T13:38:27.457Z,66.66
2022-10-11T13:40:58.179Z,68.22
2022-10-11T13:43:31.024Z,69.03
2022-10-11T13:46:01.800Z,69.17
2022-10-11T13:48:31.839Z,69.85
2022-10-11T13:51:28.781Z,70.06
2022-10-11T13:54:06.208Z,68.76
2022-10-11T13:56:46.206Z,68.93
2022-10-11T13:59:23.917Z,69.39
2022-10-11T14:02:00.128Z,69.25
2022-10-11T14:04:29.924Z,69.27
2022-10-11T14:07:03.292Z,69.01
2022-10-11T14:09:38.510Z,69.04
2022-10-11T14:12:43.191Z,68.52
2022-10-11T14:15:36.013Z,68.89
2022-10-11T14:18:49.807Z,65.00
2022-10-11T14:21:19.261Z,60.51
2022-10-11T14:24:10.533Z,59.87
2022-10-11T14:26:39.924Z,58.17
2022-10-11T14:29:32.788Z,60.42
2022-10-11T14:32:05.848Z,57.49
2022-10-11T14:34:34.507Z,52.67
2022-10-11T14:37:01.269Z,53.47
2022-10-11T14:39:31.927Z,51.42
2022-10-11T14:41:59.389Z,49.65
2022-10-11T14:44:26.364Z,51.39
2022-10-11T14:46:54.762Z,52.17
2022-10-11T14:49:26.627Z,51.28
2022-10-11T14:51:57.385Z,49.87
2022-10-11T14:54:27.063Z,51.46
2022-10-11T14:56:57.141Z,50.20
2022-10-11T14:59:31.628Z,48.55
2022-10-11T15:01:58.406Z,48.44
2022-10-11T15:04:27.197Z,48.04
2022-10-11T15:06:56.508Z,46.33
2022-10-11T15:09:28.267Z,47.96
2022-10-11T15:11:55.753Z,47.39
2022-10-11T15:14:23.767Z,45.59
2022-10-11T15:16:50.984Z,45.27
2022-10-11T15:19:22.351Z,46.04
2022-10-11T15:21:49.822Z,45.47
2022-10-11T15:24:19.942Z,47.21
2022-10-11T15:26:48.052Z,45.21
2022-10-11T15:29:17.919Z,46.26
2022-10-11T15:31:46.046Z,47.78
2022-10-11T15:34:12.802Z,49.09
2022-10-11T15:36:39.640Z,47.75
2022-10-11T15:39:32.511Z,49.44
2022-10-11T15:41:59.625Z,50.34
2022-10-11T15:44:26.554Z,50.76
2022-10-11T15:46:53.530Z,50.54
2022-10-11T15:49:20.596Z,50.46
2022-10-11T15:51:47.496Z,51.81
2022-10-11T15:54:14.190Z,51.70
2022-10-11T15:56:41.085Z,51.51
2022-10-11T15:59:11.585Z,51.34
2022-10-11T16:01:38.411Z,51.21
2022-10-11T16:04:05.470Z,51.54
2022-10-11T16:06:33.293Z,52.36
2022-10-11T16:09:00.039Z,52.88
2022-10-11T16:11:26.839Z,53.56
2022-10-11T16:13:53.553Z,54.30
2022-10-11T16:16:20.281Z,55.32
2022-10-11T16:18:50.279Z,56.06
2022-10-11T16:21:17.231Z,56.40
2022-10-11T16:23:44.020Z,57.31
2022-10-11T16:26:16.503Z,57.64
2022-10-11T16:28:44.099Z,58.51
2022-10-11T16:31:20.947Z,59.01
2022-10-11T16:33:48.652Z,59.76
2022-10-11T16:36:40.212Z,59.99
2022-10-11T16:39:15.017Z,60.72
2022-10-11T16:41:42.870Z,61.99
2022-10-11T16:44:15.412Z,62.68
2022-10-11T16:46:47.675Z,63.45
2022-10-11T16:49:21.972Z,63.50
2022-10-11T16:51:51.476Z,64.82
2022-10-11T16:54:20.468Z,65.64
2022-10-11T16:56:51.512Z,66.60
2022-10-11T16:59:18.523Z,66.80
2022-10-11T17:01:45.914Z,67.18
2022-10-11T17:04:13.466Z,68.35
2022-10-11T17:06:41.201Z,68.82
2022-10-11T17:09:07.967Z,69.19
2022-10-11T17:11:34.693Z,68.86
2022-10-11T17:14:02.411Z,69.33
2022-10-11T17:16:29.414Z,69.26
2022-10-11T17:18:56.216Z,69.35
2022-10-11T17:21:24.148Z,70.04
2022-10-11T17:23:51.333Z,70.00
2022-10-11T17:26:26.298Z,70.45
2022-10-11T17:28:58.882Z,71.69
2022-10-11T17:31:27.917Z,71.95
2022-10-11T17:33:57.559Z,72.25
2022-10-11T17:36:31.731Z,72.94
2022-10-11T17:39:01.713Z,73.49
2022-10-11T17:41:31.984Z,74.07
2022-10-11T17:44:01.234Z,77.41
2022-10-11T17:46:32.323Z,78.04
2022-10-11T17:49:04.859Z,77.27
2022-10-11T17:51:32.910Z,76.98
2022-10-11T17:53:59.745Z,77.39
2022-10-11T17:56:31.352Z,77.33
2022-10-11T17:59:00.892Z,77.43
2022-10-11T18:01:29.674Z,77.49
2022-10-11T18:04:00.901Z,78.18
2022-10-11T18:06:31.858Z,81.22
2022-10-11T18:09:04.258Z,82.68
2022-10-11T18:11:31.667Z,83.45
2022-10-11T18:13:58.562Z,83.19
2022-10-11T18:16:30.406Z,84.51
2022-10-11T18:18:58.552Z,85.97
2022-10-11T18:21:29.974Z,87.73
2022-10-11T18:24:03.627Z,89.72
2022-10-11T18:26:31.195Z,91.32
2022-10-11T18:28:59.295Z,90.62
2022-10-11T18:31:30.579Z,88.92
2022-10-11T18:33:58.742Z,89.08
2022-10-11T18:36:28.974Z,90.56
2022-10-11T18:39:01.047Z,92.47
2022-10-11T18:41:31.974Z,94.64
2022-10-11T18:44:04.256Z,94.31
2022-10-11T18:46:32.481Z,93.93
2022-10-11T18:49:02.130Z,92.68
2022-10-11T18:51:36.369Z,91.83
2022-10-11T18:54:05.508Z,91.51
2022-10-11T18:56:34.536Z,92.90
2022-10-11T18:59:01.299Z,94.39
2022-10-11T19:01:44.626Z,98.16
2022-10-11T19:04:19.123Z,99.57
2022-10-11T19:06:57.315Z,99.76
2022-10-11T19:09:40.952Z,98.47
2022-10-11T19:12:20.293Z,99.10
2022-10-11T19:14:53.243Z,100.00
2022-10-11T19:17:39.937Z,100.00
2022-10-11T19:20:16.116Z,99.88
2022-10-11T19:22:49.923Z,98.78
2022-10-11T19:25:22.006Z,98.05
2022-10-11T19:27:54.449Z,98.29
2022-10-11T19:30:32.263Z,100.00
2022-10-11T19:33:11.467Z,100.00
2022-10-11T19:35:59.242Z,100.00
2022-10-11T19:38:36.849Z,100.00
2022-10-11T19:41:10.221Z,100.00
2022-10-11T19:43:46.834Z,100.00
2022-10-11T19:46:50.499Z,100.00
2022-10-11T19:49:28.076Z,100.00
2022-10-11T19:52:14.790Z,100.00
2022-10-11T19:54:53.066Z,100.00
2022-10-11T19:57:39.788Z,100.00
2022-10-11T20:00:25.405Z,100.00
2022-10-11T20:02:52.389Z,100.00
2022-10-11T20:05:19.189Z,100.00
2022-10-11T20:07:45.990Z,100.00
2022-10-11T20:10:12.820Z,100.00
2022-10-11T20:12:45.042Z,100.00
2022-10-11T20:15:12.618Z,100.00
2022-10-11T20:17:48.610Z,100.00
2022-10-11T20:20:18.186Z,100.00
2022-10-11T20:22:45.134Z,100.00
2022-10-11T20:25:12.069Z,100.00
2022-10-11T20:27:42.382Z,100.00
2022-10-11T20:30:10.284Z,100.00
2022-10-11T20:32:37.021Z,100.00
2022-10-11T20:35:04.106Z,100.00
2022-10-11T20:37:31.189Z,100.00
2022-10-11T20:39:58.505Z,100.00
2022-10-11T20:42:28.929Z,100.00
2022-10-11T20:44:56.723Z,100.00
2022-10-11T20:47:23.471Z,100.00
2022-10-11T20:49:50.240Z,100.00
2022-10-11T20:52:17.106Z,100.00
2022-10-11T20:54:43.929Z,100.00
2022-10-11T20:57:10.741Z,100.00
2022-10-11T20:59:38.001Z,100.00
2022-10-11T21:02:04.731Z,100.00
2022-10-11T21:04:31.467Z,100.00
2022-10-11T21:06:58.175Z,100.00
2022-10-11T21:09:25.006Z,100.00
2022-10-11T21:11:51.749Z,100.00
2022-10-11T21:14:18.587Z,100.00
2022-10-11T21:16:45.367Z,100.00
2022-10-11T21:19:15.998Z,100.00
2022-10-11T21:21:46.439Z,100.00
2022-10-11T21:24:15.200Z,100.00
2022-10-11T21:26:41.902Z,100.00
2022-10-11T21:29:08.706Z,100.00
2022-10-11T21:31:35.974Z,100.00
2022-10-11T21:34:05.125Z,100.00
2022-10-11T21:36:31.961Z,100.00
2022-10-11T21:38:58.751Z,100.00
2022-10-11T21:41:30.060Z,100.00
2022-10-11T21:43:57.888Z,100.00
2022-10-11T21:49:19.240Z,100.00
2022-10-11T21:51:46.308Z,100.00
2022-10-11T21:54:13.074Z,100.00
2022-10-11T21:56:39.894Z,100.00
2022-10-11T21:59:11.124Z,100.00
2022-10-11T22:01:41.731Z,100.00
2022-10-11T22:04:10.844Z,100.00
2022-10-11T22:06:38.769Z,100.00
2022-10-11T22:09:07.713Z,100.00
2022-10-11T22:11:35.413Z,100.00
2022-10-11T22:14:02.653Z,100.00
2022-10-11T22:16:29.785Z,100.00
2022-10-11T22:18:56.915Z,100.00
2022-10-11T22:21:23.921Z,100.00
2022-10-11T22:23:53.939Z,100.00
2022-10-11T22:26:30.567Z,100.00
2022-10-11T22:28:59.519Z,100.00
2022-10-11T22:31:26.752Z,100.00
2022-10-11T22:34:00.375Z,100.00
2022-10-11T22:36:30.424Z,100.00
2022-10-11T22:38:58.585Z,100.00
2022-10-11T22:41:25.892Z,100.00
2022-10-11T22:43:52.977Z,100.00
2022-10-11T22:46:19.925Z,100.00
2022-10-11T22:48:46.902Z,100.00
2022-10-11T22:51:14.474Z,100.00
2022-10-11T22:53:41.628Z,100.00
2022-10-11T22:56:09.334Z,100.00
2022-10-11T22:58:36.884Z,100.00
2022-10-11T23:01:12.798Z,100.00
2022-10-11T23:03:40.039Z,100.00
2022-10-11T23:06:07.725Z,100.00
2022-10-11T23:08:34.797Z,100.00
2022-10-11T23:11:07.132Z,100.00
2022-10-11T23:13:35.190Z,100.00
2022-10-11T23:16:10.701Z,100.00
2022-10-11T23:18:38.278Z,100.00
2022-10-11T23:21:06.876Z,100.00
2022-10-11T23:23:34.513Z,100.00
2022-10-11T23:26:02.222Z,100.00
2022-10-11T23:28:29.407Z,100.00
2022-10-11T23:30:56.655Z,100.00
2022-10-11T23:33:23.703Z,100.00
2022-10-11T23:35:51.010Z,100.00
2022-10-11T23:38:18.146Z,100.00
2022-10-11T23:40:45.184Z,100.00
2022-10-11T23:43:12.355Z,100.00
2022-10-11T23:45:39.496Z,100.00
2022-10-11T23:48:06.641Z,100.00
2022-10-11T23:50:33.676Z,100.00
2022-10-11T23:53:00.713Z,100.00
2022-10-11T23:55:27.804Z,100.00
2022-10-11T23:57:54.849Z,100.00
